Time;durP1;ratioP1;P1;durP2;ratioP2;P2;SDS_P1;SDS_P2;PMS_P1;PMS_P2;Temp;Humidity;BMP_temperature;BMP_pressure;BME280_temperature;BME280_humidity;BME280_pressure;Samples;Min_cycle;Max_cycle;Signal;HPM_P1;HPM_P2
2023/03/29 00:00:27;;;;;;;2.70;1.30;;;4.70;99.90;;;;;;5113261;28;20209;-71
2023/03/29 00:02:55;;;;;;;3.00;0.80;;;4.60;99.90;;;;;;5112895;28;20284;-71
2023/03/29 00:05:21;;;;;;;1.87;1.23;;;4.60;99.90;;;;;;5112930;28;20453;-70
2023/03/29 00:07:52;;;;;;;4.37;1.50;;;4.70;99.90;;;;;;5113079;28;20413;-70
2023/03/29 00:10:22;;;;;;;1.70;1.30;;;4.70;99.90;;;;;;5100375;28;21002;-70
2023/03/29 00:12:50;;;;;;;3.53;1.43;;;4.70;99.90;;;;;;5099823;28;20501;-70
2023/03/29 00:15:16;;;;;;;3.00;1.53;;;4.70;99.90;;;;;;5105944;28;20414;-70
2023/03/29 00:17:42;;;;;;;3.63;1.40;;;4.70;99.90;;;;;;5104570;28;20436;-70
2023/03/29 00:20:09;;;;;;;2.07;1.40;;;4.70;99.90;;;;;;5112608;28;20910;-70
2023/03/29 00:22:36;;;;;;;1.80;1.03;;;4.70;99.90;;;;;;5100224;28;20600;-70
2023/03/29 00:25:02;;;;;;;3.50;1.90;;;4.70;99.90;;;;;;5111589;28;20975;-70
2023/03/29 00:27:28;;;;;;;3.60;1.40;;;4.60;99.90;;;;;;5100260;28;20449;-70
2023/03/29 00:29:55;;;;;;;1.83;1.20;;;4.60;99.90;;;;;;5110348;28;20816;-71
2023/03/29 00:32:21;;;;;;;2.77;1.70;;;4.60;99.90;;;;;;5112141;28;20176;-70
2023/03/29 00:34:49;;;;;;;3.60;1.40;;;4.60;99.90;;;;;;5093307;28;20418;-70
2023/03/29 00:37:15;;;;;;;8.60;1.17;;;4.60;99.90;;;;;;5104671;28;20429;-71
2023/03/29 00:39:41;;;;;;;1.70;1.20;;;4.60;99.90;;;;;;5106555;28;20429;-70
2023/03/29 00:42:16;;;;;;;3.53;1.30;;;4.60;99.90;;;;;;5112128;28;20444;-70
2023/03/29 00:45:04;;;;;;;2.47;1.30;;;4.60;99.90;;;;;;5105039;28;20261;-70
2023/03/29 00:47:33;;;;;;;2.30;1.30;;;4.70;99.90;;;;;;5107438;28;20915;-70
2023/03/29 00:50:11;;;;;;;4.70;1.93;;;4.70;99.90;;;;;;5112299;28;20437;-70
2023/03/29 00:52:38;;;;;;;4.07;0.90;;;4.60;99.90;;;;;;5095821;28;21249;-70
2023/03/29 00:55:10;;;;;;;2.10;1.30;;;4.60;99.90;;;;;;5107806;28;20422;-70
2023/03/29 00:57:37;;;;;;;4.33;1.70;;;4.60;99.90;;;;;;5085273;28;20419;-70
2023/03/29 01:00:08;;;;;;;7.43;1.63;;;4.60;99.90;;;;;;5110908;28;20418;-70
2023/03/29 01:02:38;;;;;;;3.10;1.30;;;4.60;99.90;;;;;;5098893;28;20421;-70
2023/03/29 01:05:15;;;;;;;2.90;1.67;;;4.60;99.90;;;;;;5111338;28;20456;-70
2023/03/29 01:08:02;;;;;;;3.70;1.43;;;4.60;99.90;;;;;;5111765;28;20773;-70
2023/03/29 01:10:43;;;;;;;2.83;1.50;;;4.60;99.90;;;;;;5100295;28;20497;-70
2023/03/29 01:13:15;;;;;;;3.13;1.10;;;4.60;99.90;;;;;;5110624;28;20402;-70
2023/03/29 01:15:44;;;;;;;3.23;1.50;;;4.50;99.90;;;;;;5102105;28;20968;-70
2023/03/29 01:18:10;;;;;;;2.70;1.50;;;4.50;99.90;;;;;;5094471;28;20745;-70
2023/03/29 01:20:45;;;;;;;3.40;1.50;;;4.50;99.90;;;;;;5111443;28;20414;-70
2023/03/29 01:23:26;;;;;;;3.50;1.80;;;4.50;99.90;;;;;;5084768;28;20424;-70
2023/03/29 01:26:13;;;;;;;2.60;1.20;;;4.50;99.90;;;;;;5104854;28;20409;-70
2023/03/29 01:28:57;;;;;;;1.43;0.90;;;4.40;99.90;;;;;;5110773;28;20413;-70
2023/03/29 01:31:29;;;;;;;3.57;1.80;;;4.40;99.90;;;;;;5111405;28;20805;-70
2023/03/29 01:34:09;;;;;;;3.60;1.47;;;4.40;99.90;;;;;;5111563;28;20422;-70
2023/03/29 01:36:43;;;;;;;2.33;1.43;;;4.40;99.90;;;;;;5088138;28;20417;-70
2023/03/29 01:39:09;;;;;;;1.70;1.00;;;4.40;99.90;;;;;;5106954;28;20408;-70
2023/03/29 01:41:52;;;;;;;5.60;2.13;;;4.40;99.90;;;;;;5110482;28;20409;-70
2023/03/29 01:44:25;;;;;;;1.30;0.70;;;4.40;99.90;;;;;;5110384;28;20239;-70
2023/03/29 01:46:58;;;;;;;4.40;1.37;;;4.40;99.90;;;;;;5111381;28;20533;-70
2023/03/29 01:49:55;;;;;;;3.97;1.77;;;4.40;99.90;;;;;;5085126;28;20418;-71
2023/03/29 01:52:27;;;;;;;2.80;1.43;;;4.50;99.90;;;;;;5096384;28;21148;-70
2023/03/29 01:55:02;;;;;;;2.07;0.93;;;4.50;99.90;;;;;;5102566;28;20444;-70
2023/03/29 01:57:31;;;;;;;3.00;1.17;;;4.50;99.90;;;;;;5111715;28;20970;-70
2023/03/29 01:59:58;;;;;;;2.60;1.40;;;4.60;99.90;;;;;;5117717;28;20417;-70
2023/03/29 02:02:28;;;;;;;2.07;1.00;;;4.50;99.90;;;;;;5117398;28;20993;-70
2023/03/29 02:04:54;;;;;;;2.53;1.23;;;4.50;99.90;;;;;;5104030;28;20458;-70
2023/03/29 02:07:25;;;;;;;2.40;1.10;;;4.50;99.90;;;;;;5097391;28;20410;-70
2023/03/29 02:09:52;;;;;;;1.60;0.97;;;4.50;99.90;;;;;;5100204;28;20543;-70
2023/03/29 02:12:19;;;;;;;2.57;1.30;;;4.50;99.90;;;;;;5117628;28;20420;-70
2023/03/29 02:14:45;;;;;;;2.10;1.17;;;4.60;99.90;;;;;;5117453;28;20419;-70
2023/03/29 02:17:22;;;;;;;3.40;1.13;;;4.70;99.90;;;;;;5116828;28;20913;-70
2023/03/29 02:19:54;;;;;;;2.07;1.00;;;4.90;99.90;;;;;;5117340;28;20199;-70
2023/03/29 02:22:30;;;;;;;2.13;0.97;;;5.00;99.90;;;;;;5111345;28;20410;-70
2023/03/29 02:24:57;;;;;;;1.60;0.80;;;5.10;99.90;;;;;;5115335;28;20487;-70
2023/03/29 02:27:26;;;;;;;1.67;0.90;;;5.30;99.90;;;;;;5105182;28;20501;-70
2023/03/29 02:29:52;;;;;;;1.80;0.93;;;5.40;99.90;;;;;;5101504;28;20420;-70
2023/03/29 02:32:26;;;;;;;2.37;1.00;;;5.40;99.90;;;;;;5116669;28;20504;-70
2023/03/29 02:35:03;;;;;;;1.87;0.80;;;5.40;99.90;;;;;;5117117;28;20189;-70
2023/03/29 02:37:33;;;;;;;2.33;0.97;;;5.50;99.90;;;;;;5102718;28;20426;-70
2023/03/29 02:40:00;;;;;;;2.77;1.50;;;5.60;99.90;;;;;;5111507;28;20419;-70
2023/03/29 02:42:27;;;;;;;2.50;1.13;;;5.60;99.90;;;;;;5114396;28;20559;-70
2023/03/29 02:44:57;;;;;;;3.63;1.13;;;5.70;99.90;;;;;;5104824;28;20448;-70
2023/03/29 02:47:35;;;;;;;2.13;1.00;;;5.70;99.90;;;;;;5117048;28;20952;-70
2023/03/29 02:50:01;;;;;;;1.47;0.90;;;5.80;99.90;;;;;;5117010;28;20524;-70
2023/03/29 02:52:33;;;;;;;1.37;0.73;;;5.80;99.90;;;;;;5101790;28;20873;-70
2023/03/29 02:55:02;;;;;;;1.70;0.70;;;5.80;99.90;;;;;;5112222;28;20191;-70
2023/03/29 02:57:28;;;;;;;3.20;1.03;;;5.80;99.90;;;;;;5116619;28;20452;-70
2023/03/29 02:59:59;;;;;;;2.23;1.03;;;5.80;99.90;;;;;;5116469;28;20433;-70
2023/03/29 03:02:26;;;;;;;2.20;1.10;;;5.90;99.90;;;;;;5116864;28;20470;-70
2023/03/29 03:04:52;;;;;;;3.20;1.10;;;5.90;99.90;;;;;;5116861;28;20453;-70
2023/03/29 03:07:18;;;;;;;1.80;1.10;;;5.90;99.90;;;;;;5116808;28;20409;-70
2023/03/29 03:09:45;;;;;;;2.97;1.87;;;5.90;99.90;;;;;;5102244;28;20781;-70
2023/03/29 03:12:11;;;;;;;2.27;1.10;;;6.00;99.90;;;;;;5113077;28;20974;-70
2023/03/29 03:14:36;;;;;;;3.30;1.07;;;6.00;99.90;;;;;;5104144;28;20431;-70
2023/03/29 03:17:02;;;;;;;3.23;1.13;;;6.00;99.90;;;;;;5094537;28;20193;-70
2023/03/29 03:19:28;;;;;;;1.53;0.90;;;6.00;99.90;;;;;;5095063;28;20176;-70
2023/03/29 03:21:54;;;;;;;1.80;1.10;;;6.00;99.90;;;;;;5098208;28;20183;-70
2023/03/29 03:24:20;;;;;;;1.93;0.83;;;6.00;99.90;;;;;;5093268;28;20287;-70
2023/03/29 03:26:46;;;;;;;2.13;0.93;;;6.00;99.90;;;;;;5086770;28;20528;-70
2023/03/29 03:29:13;;;;;;;1.67;0.80;;;6.10;99.90;;;;;;5099629;28;20591;-70
2023/03/29 03:31:41;;;;;;;3.20;1.00;;;6.00;99.90;;;;;;5086515;28;20186;-70
2023/03/29 03:34:07;;;;;;;1.40;0.60;;;6.00;99.90;;;;;;5113235;28;20417;-70
2023/03/29 03:36:34;;;;;;;2.00;0.90;;;6.10;99.90;;;;;;5093393;28;20471;-70
2023/03/29 03:39:01;;;;;;;2.40;1.20;;;6.20;99.90;;;;;;5102076;28;20617;-70
2023/03/29 03:41:27;;;;;;;6.43;1.00;;;6.10;99.90;;;;;;5105003;28;20502;-71
2023/03/29 03:43:52;;;;;;;1.50;0.83;;;6.10;99.90;;;;;;5089250;28;20541;-70
2023/03/29 03:46:18;;;;;;;2.17;1.10;;;6.20;99.90;;;;;;5101680;28;20254;-70
2023/03/29 03:48:45;;;;;;;2.27;1.03;;;6.10;99.90;;;;;;5113175;28;20597;-70
2023/03/29 03:51:11;;;;;;;3.10;1.00;;;6.10;99.90;;;;;;5106431;28;20172;-70
2023/03/29 03:53:38;;;;;;;1.60;0.60;;;6.10;99.90;;;;;;5101747;28;20427;-70
2023/03/29 03:56:12;;;;;;;2.07;1.00;;;6.10;99.90;;;;;;5105729;28;20483;-70
2023/03/29 03:58:38;;;;;;;1.50;0.80;;;6.10;99.90;;;;;;5094215;28;20761;-70
2023/03/29 04:01:04;;;;;;;4.70;1.33;;;6.10;99.90;;;;;;5104785;28;20433;-70
2023/03/29 04:03:30;;;;;;;1.53;0.60;;;6.10;99.90;;;;;;5105580;28;20172;-70
2023/03/29 04:05:59;;;;;;;2.43;0.87;;;6.10;99.90;;;;;;5101709;28;20751;-70
2023/03/29 04:08:26;;;;;;;2.60;0.80;;;6.10;99.90;;;;;;5109982;28;20176;-70
2023/03/29 04:10:53;;;;;;;3.10;1.20;;;6.10;99.90;;;;;;5092659;28;20414;-70
2023/03/29 04:13:19;;;;;;;2.43;1.23;;;6.10;99.90;;;;;;5107389;28;20414;-70
2023/03/29 04:15:48;;;;;;;1.20;0.60;;;6.10;99.90;;;;;;5112780;28;20448;-71
2023/03/29 04:18:14;;;;;;;2.17;0.80;;;6.10;99.90;;;;;;5112626;28;20508;-70
2023/03/29 04:20:40;;;;;;;5.30;1.33;;;6.10;99.90;;;;;;5112732;28;20497;-70
2023/03/29 04:23:06;;;;;;;1.40;0.70;;;6.20;99.90;;;;;;5100271;28;20509;-70
2023/03/29 04:25:32;;;;;;;2.70;0.90;;;6.20;99.90;;;;;;5101879;28;20203;-70
2023/03/29 04:27:57;;;;;;;1.50;0.90;;;6.20;99.90;;;;;;5109280;28;20613;-70
2023/03/29 04:30:23;;;;;;;2.20;1.20;;;6.20;99.90;;;;;;5101711;28;20179;-70
2023/03/29 04:32:49;;;;;;;1.80;0.80;;;6.20;99.90;;;;;;5098397;28;20512;-70
2023/03/29 04:35:14;;;;;;;2.33;0.93;;;6.10;99.90;;;;;;5112445;28;20229;-70
2023/03/29 04:37:40;;;;;;;1.47;0.80;;;6.10;99.90;;;;;;5112455;28;20194;-70
2023/03/29 04:40:13;;;;;;;2.50;1.10;;;6.10;99.90;;;;;;5094625;28;20295;-70
2023/03/29 04:42:43;;;;;;;2.70;1.33;;;6.10;99.90;;;;;;5085951;28;20199;-70
2023/03/29 04:45:09;;;;;;;1.30;0.70;;;6.10;99.90;;;;;;5086401;28;20470;-70
2023/03/29 04:47:38;;;;;;;1.40;0.70;;;6.10;99.90;;;;;;5089836;28;20521;-70
2023/03/29 04:50:05;;;;;;;1.30;0.60;;;6.10;99.90;;;;;;5090844;28;20413;-68
2023/03/29 04:52:32;;;;;;;1.67;1.00;;;6.10;99.90;;;;;;5095445;28;20410;-68
2023/03/29 04:54:58;;;;;;;1.60;0.80;;;6.10;99.90;;;;;;5107262;28;20501;-68
2023/03/29 04:57:24;;;;;;;2.37;0.87;;;6.10;99.90;;;;;;5111924;28;20424;-68
2023/03/29 04:59:50;;;;;;;3.53;1.20;;;6.20;99.90;;;;;;5111209;28;20413;-68
2023/03/29 05:02:15;;;;;;;3.93;1.20;;;6.20;99.90;;;;;;5111566;28;20467;-68
2023/03/29 05:04:41;;;;;;;3.20;1.80;;;6.20;99.90;;;;;;5111210;28;20208;-70
2023/03/29 05:07:07;;;;;;;4.63;1.20;;;6.20;99.90;;;;;;5098335;28;20327;-70
2023/03/29 05:09:34;;;;;;;2.57;1.20;;;6.20;99.90;;;;;;5100078;28;20184;-70
2023/03/29 05:12:00;;;;;;;1.30;0.57;;;6.30;99.90;;;;;;5109299;28;20179;-70
2023/03/29 05:14:25;;;;;;;1.50;0.63;;;6.30;99.90;;;;;;5110835;28;20418;-70
2023/03/29 05:16:51;;;;;;;1.70;0.70;;;6.40;99.90;;;;;;5092856;28;20418;-70
2023/03/29 05:19:17;;;;;;;2.27;1.13;;;6.40;99.90;;;;;;5103548;28;20271;-70
2023/03/29 05:21:43;;;;;;;2.40;0.70;;;6.40;99.80;;;;;;5111108;28;20172;-70
2023/03/29 05:24:09;;;;;;;3.83;0.70;;;6.50;99.30;;;;;;5103472;28;20976;-70
2023/03/29 05:26:35;;;;;;;2.37;1.00;;;6.70;99.10;;;;;;5097699;28;20176;-70
2023/03/29 05:29:00;;;;;;;3.50;1.13;;;6.70;99.20;;;;;;5110922;28;20540;-70
2023/03/29 05:31:27;;;;;;;2.90;1.20;;;6.80;98.80;;;;;;5104930;28;20184;-70
2023/03/29 05:33:52;;;;;;;4.00;1.40;;;6.90;98.80;;;;;;5101944;28;20179;-70
2023/03/29 05:36:18;;;;;;;6.97;1.70;;;6.90;98.90;;;;;;5105632;28;20445;-70
2023/03/29 05:38:45;;;;;;;2.87;1.23;;;6.90;98.90;;;;;;5101918;28;20216;-70
2023/03/29 05:41:11;;;;;;;3.07;1.50;;;7.00;99.00;;;;;;5096435;28;20172;-70
2023/03/29 05:43:37;;;;;;;2.43;1.17;;;7.00;99.20;;;;;;5096762;28;20495;-70
2023/03/29 05:46:05;;;;;;;4.33;1.10;;;7.00;99.00;;;;;;5095249;28;20529;-70
2023/03/29 05:48:30;;;;;;;6.87;1.67;;;7.00;99.10;;;;;;5110190;28;20414;-70
2023/03/29 05:50:56;;;;;;;3.13;1.23;;;7.10;99.20;;;;;;5104468;28;20426;-70
2023/03/29 05:53:24;;;;;;;1.80;0.77;;;7.10;99.40;;;;;;5098858;28;20177;-70
2023/03/29 05:55:50;;;;;;;1.90;0.93;;;7.10;99.40;;;;;;5109834;28;20882;-70
2023/03/29 05:58:19;;;;;;;1.53;0.80;;;7.10;99.00;;;;;;5097980;28;20441;-70
2023/03/29 06:00:44;;;;;;;3.03;0.87;;;7.10;99.50;;;;;;5097869;28;20432;-70
2023/03/29 06:03:17;;;;;;;1.80;0.77;;;7.20;99.20;;;;;;5110320;28;20414;-70
2023/03/29 06:05:47;;;;;;;2.50;0.90;;;7.20;99.20;;;;;;5111097;28;20813;-70
2023/03/29 06:08:14;;;;;;;3.13;0.90;;;7.30;99.70;;;;;;5111125;28;20413;-70
2023/03/29 06:10:40;;;;;;;2.00;0.80;;;7.20;99.90;;;;;;5102641;28;20969;-70
2023/03/29 06:13:06;;;;;;;2.00;0.70;;;7.30;99.90;;;;;;5090760;28;20589;-70
2023/03/29 06:15:33;;;;;;;1.40;0.73;;;7.40;99.90;;;;;;5110431;28;20467;-70
2023/03/29 06:17:59;;;;;;;2.37;0.90;;;7.40;99.90;;;;;;5097083;28;20199;-70
2023/03/29 06:20:25;;;;;;;1.50;0.87;;;7.50;99.90;;;;;;5102516;28;20422;-70
2023/03/29 06:22:51;;;;;;;2.07;0.73;;;7.50;99.90;;;;;;5095440;28;20267;-70
2023/03/29 06:25:18;;;;;;;1.87;0.70;;;7.60;99.90;;;;;;5110633;28;20235;-70
2023/03/29 06:27:47;;;;;;;2.33;0.70;;;7.60;99.90;;;;;;5109675;28;20458;-70
2023/03/29 06:30:17;;;;;;;3.97;1.37;;;7.70;99.90;;;;;;5110503;28;20417;-70
2023/03/29 06:32:43;;;;;;;5.80;2.00;;;7.80;99.90;;;;;;5110340;28;20417;-70
2023/03/29 06:35:09;;;;;;;1.70;0.60;;;7.80;99.90;;;;;;5110774;28;20425;-70
2023/03/29 06:37:35;;;;;;;3.67;1.00;;;7.90;99.20;;;;;;5110004;28;20418;-70
2023/03/29 06:40:05;;;;;;;2.80;1.33;;;8.00;99.50;;;;;;5111106;28;20418;-70
2023/03/29 06:42:31;;;;;;;2.33;1.13;;;7.90;99.00;;;;;;5109609;28;20495;-70
2023/03/29 06:44:56;;;;;;;3.67;0.73;;;7.90;98.90;;;;;;5101999;28;20508;-71
2023/03/29 06:47:27;;;;;;;1.83;0.90;;;7.80;98.80;;;;;;5111301;28;20191;-68
2023/03/29 06:49:53;;;;;;;1.33;0.73;;;7.80;98.40;;;;;;5115362;28;20176;-72
2023/03/29 06:52:19;;;;;;;1.93;0.70;;;7.80;98.70;;;;;;5099774;28;20414;-72
2023/03/29 06:54:45;;;;;;;1.90;0.83;;;7.90;99.20;;;;;;5111132;28;20584;-72
2023/03/29 06:57:11;;;;;;;4.27;0.90;;;7.90;99.30;;;;;;5114601;28;20207;-72
2023/03/29 06:59:37;;;;;;;3.53;1.33;;;7.90;99.30;;;;;;5114279;28;20421;-73
2023/03/29 07:02:03;;;;;;;2.90;0.93;;;8.00;98.90;;;;;;5114290;28;20431;-73
2023/03/29 07:04:30;;;;;;;2.80;0.80;;;8.10;98.50;;;;;;5114579;28;20539;-73
2023/03/29 07:07:03;;;;;;;2.03;0.77;;;8.00;99.10;;;;;;5100343;28;20193;-73
2023/03/29 07:09:29;;;;;;;1.77;0.90;;;8.10;98.90;;;;;;5114352;28;20449;-73
2023/03/29 07:11:58;;;;;;;6.03;0.80;;;8.20;99.10;;;;;;5099622;28;20421;-73
2023/03/29 07:14:27;;;;;;;1.50;0.80;;;8.40;98.70;;;;;;5113772;28;20474;-72
2023/03/29 07:16:59;;;;;;;3.30;0.73;;;8.30;98.50;;;;;;5114070;28;20512;-73
2023/03/29 07:19:27;;;;;;;1.57;0.80;;;8.50;97.90;;;;;;5114045;28;20479;-73
2023/03/29 07:21:53;;;;;;;2.53;0.73;;;8.70;98.30;;;;;;5111972;28;20421;-73
2023/03/29 07:24:19;;;;;;;2.03;0.80;;;8.70;98.00;;;;;;5106205;28;20453;-73
2023/03/29 07:26:46;;;;;;;4.50;1.37;;;8.80;97.80;;;;;;5107280;28;20536;-73
2023/03/29 07:29:12;;;;;;;1.60;0.70;;;8.80;97.40;;;;;;5105849;28;20890;-73
2023/03/29 07:31:39;;;;;;;4.87;1.00;;;9.00;97.40;;;;;;5113116;28;20457;-72
2023/03/29 07:34:11;;;;;;;1.30;0.67;;;9.00;96.90;;;;;;5113620;28;20448;-73
2023/03/29 07:36:38;;;;;;;1.40;0.80;;;9.00;96.90;;;;;;5088481;28;21018;-73
2023/03/29 07:39:05;;;;;;;2.33;0.80;;;8.90;96.90;;;;;;5112845;28;20434;-73
2023/03/29 07:41:31;;;;;;;2.17;1.10;;;8.90;97.00;;;;;;5112538;28;20425;-73
2023/03/29 07:43:56;;;;;;;1.80;0.50;;;8.90;96.90;;;;;;5098631;28;20497;-73
2023/03/29 07:46:22;;;;;;;2.40;1.00;;;8.90;96.80;;;;;;5113377;28;20570;-73
2023/03/29 07:48:47;;;;;;;2.50;0.70;;;8.80;96.80;;;;;;5098803;28;20180;-73
2023/03/29 07:51:14;;;;;;;1.70;0.77;;;8.80;96.70;;;;;;5105706;28;20188;-73
2023/03/29 07:53:39;;;;;;;1.23;0.60;;;8.80;96.70;;;;;;5101322;28;20604;-73
2023/03/29 07:56:05;;;;;;;1.83;0.90;;;8.80;96.50;;;;;;5112839;28;20441;-73
2023/03/29 07:58:31;;;;;;;1.73;0.90;;;8.80;96.50;;;;;;5111191;28;20175;-72
2023/03/29 08:00:59;;;;;;;2.00;0.90;;;8.90;96.60;;;;;;5102338;28;20501;-72
2023/03/29 08:03:26;;;;;;;3.27;1.33;;;8.80;96.60;;;;;;5112714;28;20182;-72
2023/03/29 08:05:52;;;;;;;2.07;0.83;;;8.90;96.30;;;;;;5112783;28;20470;-73
2023/03/29 08:08:17;;;;;;;1.27;0.63;;;9.00;96.40;;;;;;5098321;28;20520;-73
2023/03/29 08:10:43;;;;;;;10.40;1.17;;;9.00;96.80;;;;;;5096820;28;20693;-72
2023/03/29 08:13:09;;;;;;;3.00;0.93;;;9.10;96.40;;;;;;5092110;28;20184;-72
2023/03/29 08:15:37;;;;;;;2.37;1.00;;;9.20;96.20;;;;;;5109438;28;20203;-72
2023/03/29 08:18:03;;;;;;;3.53;0.70;;;9.30;96.10;;;;;;5111293;28;20523;-72
2023/03/29 08:20:29;;;;;;;1.33;0.63;;;9.30;95.90;;;;;;5111311;28;21104;-73
2023/03/29 08:22:55;;;;;;;2.00;0.90;;;9.40;95.40;;;;;;5101851;28;20466;-72
2023/03/29 08:25:21;;;;;;;2.07;1.30;;;9.40;95.60;;;;;;5111236;28;20280;-73
2023/03/29 08:27:46;;;;;;;1.90;0.90;;;9.40;95.30;;;;;;5110301;28;20184;-74
2023/03/29 08:30:13;;;;;;;1.77;0.93;;;9.40;95.10;;;;;;5104910;28;20183;-73
2023/03/29 08:32:39;;;;;;;1.47;0.80;;;9.40;94.60;;;;;;5103875;28;20184;-73
2023/03/29 08:35:08;;;;;;;2.40;0.87;;;9.50;94.80;;;;;;5111881;28;20909;-73
2023/03/29 08:37:35;;;;;;;1.90;1.10;;;9.50;94.40;;;;;;5097336;28;20422;-73
2023/03/29 08:40:01;;;;;;;1.30;0.60;;;9.50;94.60;;;;;;5108228;28;20875;-73
2023/03/29 08:42:46;;;;;;;1.70;0.90;;;9.60;94.50;;;;;;5103849;28;20603;-73
2023/03/29 08:45:23;;;;;;;3.50;1.20;;;9.60;94.50;;;;;;5110745;28;20489;-73
2023/03/29 08:47:55;;;;;;;1.80;0.80;;;9.70;94.20;;;;;;5110521;28;20909;-71
2023/03/29 08:50:24;;;;;;;2.43;0.80;;;9.80;94.40;;;;;;5110353;28;20426;-71
2023/03/29 08:53:14;;;;;;;3.20;1.00;;;9.80;94.20;;;;;;5097568;28;20425;-72
2023/03/29 08:55:46;;;;;;;2.03;1.00;;;9.90;94.30;;;;;;5097401;28;20445;-72
2023/03/29 08:58:17;;;;;;;2.47;1.00;;;10.00;93.70;;;;;;5089603;28;20528;-73
2023/03/29 09:00:51;;;;;;;2.83;0.83;;;10.10;93.90;;;;;;5109198;28;20447;-72
2023/03/29 09:03:24;;;;;;;2.40;0.93;;;10.10;93.90;;;;;;5096647;28;20510;-73
2023/03/29 09:06:03;;;;;;;2.43;1.20;;;10.20;93.70;;;;;;5091095;28;20464;-73
2023/03/29 09:08:29;;;;;;;2.93;1.20;;;10.20;93.40;;;;;;5095590;28;20505;-73
2023/03/29 09:11:16;;;;;;;3.23;0.97;;;10.20;93.10;;;;;;5110828;28;20452;-71
2023/03/29 09:13:52;;;;;;;2.07;1.00;;;10.20;92.70;;;;;;5089710;28;20430;-73
2023/03/29 09:16:36;;;;;;;1.50;0.80;;;10.30;92.90;;;;;;5104108;28;20413;-73
2023/03/29 09:19:10;;;;;;;3.03;1.20;;;10.30;92.40;;;;;;5100181;28;20418;-73
2023/03/29 09:21:48;;;;;;;2.53;1.27;;;10.50;92.40;;;;;;5107964;28;20417;-73
2023/03/29 09:24:25;;;;;;;5.60;1.20;;;10.70;93.00;;;;;;5094602;28;20453;-73
2023/03/29 09:26:57;;;;;;;1.43;0.73;;;11.10;92.90;;;;;;5112121;28;20527;-73
2023/03/29 09:29:49;;;;;;;2.40;1.30;;;11.40;92.40;;;;;;5097455;28;20406;-72
2023/03/29 09:32:25;;;;;;;1.40;0.70;;;11.70;91.70;;;;;;5099921;28;20421;-72
2023/03/29 09:35:10;;;;;;;3.00;0.87;;;11.80;91.60;;;;;;5083031;28;20888;-72
2023/03/29 09:37:38;;;;;;;2.90;1.07;;;11.70;90.80;;;;;;5110941;28;20951;-72
2023/03/29 09:40:16;;;;;;;3.80;1.70;;;11.60;90.90;;;;;;5100566;28;21229;-72
2023/03/29 09:42:43;;;;;;;2.73;1.00;;;11.70;91.10;;;;;;5109002;28;20992;-72
2023/03/29 09:45:09;;;;;;;3.30;1.27;;;11.80;90.90;;;;;;5111763;28;20469;-72
2023/03/29 09:47:40;;;;;;;2.07;1.00;;;11.90;91.30;;;;;;5107497;28;20831;-73
2023/03/29 09:50:30;;;;;;;3.33;1.33;;;11.90;90.10;;;;;;5101207;28;20191;-72
2023/03/29 09:52:56;;;;;;;3.20;1.27;;;12.00;90.70;;;;;;5094330;28;20410;-73
2023/03/29 09:55:27;;;;;;;2.07;0.90;;;12.10;90.30;;;;;;5092777;28;20508;-72
2023/03/29 09:57:54;;;;;;;3.00;1.20;;;12.10;90.40;;;;;;5101176;28;20188;-71
2023/03/29 10:00:21;;;;;;;3.73;1.30;;;12.20;90.30;;;;;;5104957;28;20515;-73
2023/03/29 10:02:51;;;;;;;2.47;1.13;;;12.20;90.40;;;;;;5101252;28;20937;-72
2023/03/29 10:05:17;;;;;;;3.67;1.30;;;12.40;90.90;;;;;;5112211;28;20544;-72
2023/03/29 10:08:05;;;;;;;8.67;1.33;;;12.40;90.00;;;;;;5101185;28;20509;-72
2023/03/29 10:10:33;;;;;;;6.60;1.97;;;12.40;88.90;;;;;;5098769;28;20175;-72
2023/03/29 10:13:05;;;;;;;2.17;0.80;;;12.50;90.40;;;;;;5110189;28;20424;-72
2023/03/29 10:15:32;;;;;;;2.20;0.90;;;12.70;88.90;;;;;;5111764;28;20758;-72
2023/03/29 10:18:05;;;;;;;2.60;1.10;;;13.00;89.00;;;;;;5111353;28;20413;-71
2023/03/29 10:20:35;;;;;;;13.90;1.03;;;13.20;89.30;;;;;;5115713;28;20424;-72
2023/03/29 10:23:00;;;;;;;2.50;1.30;;;13.30;89.70;;;;;;5106480;28;20421;-72
2023/03/29 10:25:31;;;;;;;1.80;0.80;;;13.40;88.40;;;;;;5114691;28;20873;-72
2023/03/29 10:28:07;;;;;;;1.80;0.90;;;13.50;88.40;;;;;;5100731;28;20186;-72
2023/03/29 10:30:37;;;;;;;3.07;1.30;;;13.70;90.10;;;;;;5114629;28;20421;-71
2023/03/29 10:33:05;;;;;;;2.63;1.30;;;14.10;89.60;;;;;;5113615;28;20842;-73
2023/03/29 10:35:40;;;;;;;2.07;0.83;;;14.30;85.00;;;;;;5101220;28;20523;-73
2023/03/29 10:38:12;;;;;;;7.30;1.90;;;14.40;85.40;;;;;;5087597;28;21076;-73
2023/03/29 10:40:50;;;;;;;1.97;1.00;;;14.30;84.60;;;;;;5112623;28;20507;-73
2023/03/29 10:43:16;;;;;;;1.80;0.90;;;14.00;84.90;;;;;;5090915;28;20446;-72
2023/03/29 10:45:42;;;;;;;2.00;0.90;;;14.00;85.70;;;;;;5092183;28;20479;-73
2023/03/29 10:48:13;;;;;;;1.50;0.80;;;13.90;85.90;;;;;;5093714;28;20330;-72
2023/03/29 10:50:39;;;;;;;2.90;0.87;;;14.20;87.90;;;;;;5107931;28;20774;-73
2023/03/29 10:53:27;;;;;;;4.27;1.07;;;14.10;86.00;;;;;;5101833;28;20536;-73
2023/03/29 10:56:01;;;;;;;1.70;0.70;;;14.10;84.40;;;;;;5109021;28;20469;-72
2023/03/29 10:59:04;;;;;;;2.50;1.00;;;14.30;85.10;;;;;;5112850;28;20877;-72
2023/03/29 11:01:38;;;;;;;1.80;0.90;;;14.50;85.80;;;;;;5112868;28;20427;-72
2023/03/29 11:04:07;;;;;;;2.07;1.00;;;14.50;86.00;;;;;;5086411;28;21019;-73
2023/03/29 11:07:21;;;;;;;3.53;1.37;;;14.60;84.10;;;;;;5113149;28;21178;-73
2023/03/29 11:10:20;;;;;;;1.30;0.63;;;14.70;87.20;;;;;;5107239;28;20804;-72
2023/03/29 11:13:11;;;;;;;2.73;1.00;;;15.00;82.80;;;;;;5098651;28;20454;-73
2023/03/29 11:16:04;;;;;;;1.40;0.73;;;15.20;80.50;;;;;;5092997;28;20481;-73
2023/03/29 11:18:41;;;;;;;2.60;0.97;;;15.40;78.60;;;;;;5111701;28;20421;-71
2023/03/29 11:21:07;;;;;;;1.90;0.60;;;15.30;72.80;;;;;;5100150;28;20453;-72
2023/03/29 11:23:44;;;;;;;2.43;0.90;;;15.00;74.90;;;;;;5105270;28;20971;-73
2023/03/29 11:26:31;;;;;;;3.30;1.00;;;15.10;78.40;;;;;;5100229;28;20181;-73
2023/03/29 11:29:21;;;;;;;1.27;0.57;;;15.30;79.60;;;;;;5113960;28;20455;-73
2023/03/29 11:31:56;;;;;;;2.67;0.97;;;15.40;79.10;;;;;;5112863;28;20449;-73
2023/03/29 11:34:38;;;;;;;1.63;0.70;;;15.30;75.70;;;;;;5100138;28;20851;-72
2023/03/29 11:37:15;;;;;;;3.97;1.37;;;15.20;76.90;;;;;;5114121;28;20507;-73
2023/03/29 11:40:04;;;;;;;7.50;1.00;;;14.90;76.00;;;;;;5094348;28;20426;-74
2023/03/29 11:42:33;;;;;;;1.80;1.00;;;14.80;77.00;;;;;;5098266;28;20933;-72
2023/03/29 11:45:01;;;;;;;2.50;0.93;;;14.80;76.90;;;;;;5113841;28;20506;-72
2023/03/29 11:47:32;;;;;;;1.80;0.67;;;15.10;78.40;;;;;;5099851;28;20910;-72
2023/03/29 11:50:13;;;;;;;4.23;1.10;;;15.40;74.80;;;;;;5112981;28;20413;-72
2023/03/29 11:52:45;;;;;;;1.87;0.90;;;15.60;76.20;;;;;;5098587;28;20420;-73
2023/03/29 11:55:29;;;;;;;1.50;0.70;;;15.70;75.20;;;;;;5104759;28;20418;-73
2023/03/29 11:58:06;;;;;;;2.07;0.50;;;15.60;75.50;;;;;;5112808;28;20491;-73
2023/03/29 12:00:36;;;;;;;1.57;0.60;;;15.50;74.50;;;;;;5100597;28;20492;-73
2023/03/29 12:03:28;;;;;;;1.93;0.70;;;15.20;74.30;;;;;;5112915;28;20925;-73
2023/03/29 12:06:03;;;;;;;1.50;0.67;;;15.10;74.70;;;;;;5104419;28;20537;-71
2023/03/29 12:08:34;;;;;;;7.40;1.07;;;15.00;75.90;;;;;;5092630;28;20501;-72
2023/03/29 12:11:21;;;;;;;2.37;0.70;;;14.90;76.10;;;;;;5103288;28;20418;-72
2023/03/29 12:13:53;;;;;;;1.40;0.70;;;14.90;74.90;;;;;;5078451;28;20414;-72
2023/03/29 12:16:42;;;;;;;1.50;0.70;;;14.80;77.20;;;;;;5093324;28;20411;-72
2023/03/29 12:19:33;;;;;;;3.77;1.30;;;14.80;76.20;;;;;;5092259;28;20453;-72
2023/03/29 12:22:00;;;;;;;3.57;1.10;;;14.80;75.60;;;;;;5097961;28;20442;-72
2023/03/29 12:24:31;;;;;;;4.10;0.67;;;14.80;77.00;;;;;;5107305;28;20492;-72
2023/03/29 12:27:20;;;;;;;9.53;1.00;;;14.70;77.40;;;;;;5103907;28;20421;-72
2023/03/29 12:30:11;;;;;;;1.43;0.50;;;14.70;76.90;;;;;;5110425;28;21046;-71
2023/03/29 12:33:03;;;;;;;2.47;0.80;;;14.60;76.50;;;;;;5112368;28;20432;-71
2023/03/29 12:35:47;;;;;;;1.50;0.70;;;14.50;77.30;;;;;;5109874;28;20520;-72
2023/03/29 12:38:27;;;;;;;2.67;0.70;;;14.50;78.00;;;;;;5113416;28;20401;-72
2023/03/29 12:40:58;;;;;;;1.40;0.70;;;14.40;82.20;;;;;;5100167;28;20406;-72
2023/03/29 12:43:37;;;;;;;2.43;0.70;;;14.10;84.00;;;;;;5103032;28;20441;-71
2023/03/29 12:46:08;;;;;;;2.53;0.80;;;14.40;81.80;;;;;;5108052;28;20453;-72
2023/03/29 12:48:37;;;;;;;2.50;0.90;;;14.70;81.90;;;;;;5105574;28;20422;-71
2023/03/29 12:51:06;;;;;;;6.10;1.30;;;15.00;81.10;;;;;;5107565;28;20423;-76
2023/03/29 12:53:39;;;;;;;5.83;1.17;;;15.10;80.00;;;;;;5096905;28;20410;-71
2023/03/29 12:56:07;;;;;;;2.37;0.70;;;15.00;80.10;;;;;;5104074;28;20463;-72
2023/03/29 12:58:38;;;;;;;2.60;1.07;;;15.00;79.50;;;;;;5108150;28;20740;-72
2023/03/29 13:01:25;;;;;;;3.23;0.97;;;15.00;79.00;;;;;;5117045;28;20826;-74
2023/03/29 13:04:00;;;;;;;2.60;0.70;;;14.90;77.70;;;;;;5079725;28;20458;-73
2023/03/29 13:06:30;;;;;;;3.10;1.10;;;14.90;80.40;;;;;;5105706;28;20506;-73
2023/03/29 13:09:19;;;;;;;2.00;0.93;;;14.80;78.70;;;;;;5106819;28;20618;-73
2023/03/29 13:11:51;;;;;;;2.27;0.80;;;14.80;75.40;;;;;;5125360;28;20409;-73